sensor_id;sensor_type;location;lat;lon;timestamp;temperature;humidity
25871;DHT22;13689;48.590;7.752;2023-04-03T00:01:31;7.10;66.40
25871;DHT22;13689;48.590;7.752;2023-04-03T00:03:57;7.10;66.10
25871;DHT22;13689;48.590;7.752;2023-04-03T00:06:24;7.10;66.10
25871;DHT22;13689;48.590;7.752;2023-04-03T00:08:50;7.10;65.90
25871;DHT22;13689;48.590;7.752;2023-04-03T00:11:17;7.10;65.70
25871;DHT22;13689;48.590;7.752;2023-04-03T00:13:43;7.00;65.60
25871;DHT22;13689;48.590;7.752;2023-04-03T00:16:10;7.00;65.50
25871;DHT22;13689;48.590;7.752;2023-04-03T00:18:37;7.00;65.40
25871;DHT22;13689;48.590;7.752;2023-04-03T00:21:03;7.00;65.40
25871;DHT22;13689;48.590;7.752;2023-04-03T00:23:29;6.90;65.20
25871;DHT22;13689;48.590;7.752;2023-04-03T00:25:54;6.90;65.50
25871;DHT22;13689;48.590;7.752;2023-04-03T00:28:20;6.90;65.30
25871;DHT22;13689;48.590;7.752;2023-04-03T00:30:48;7.00;65.40
25871;DHT22;13689;48.590;7.752;2023-04-03T00:33:13;7.00;65.50
25871;DHT22;13689;48.590;7.752;2023-04-03T00:35:39;6.90;65.30
25871;DHT22;13689;48.590;7.752;2023-04-03T00:38:05;6.90;65.30
25871;DHT22;13689;48.590;7.752;2023-04-03T00:40:36;6.90;65.60
25871;DHT22;13689;48.590;7.752;2023-04-03T00:43:10;6.90;65.60
25871;DHT22;13689;48.590;7.752;2023-04-03T00:45:39;7.00;65.50
25871;DHT22;13689;48.590;7.752;2023-04-03T00:48:07;7.00;65.50
25871;DHT22;13689;48.590;7.752;2023-04-03T00:50:37;7.00;65.40
25871;DHT22;13689;48.590;7.752;2023-04-03T00:53:05;6.90;65.40
25871;DHT22;13689;48.590;7.752;2023-04-03T00:55:32;7.00;65.50
25871;DHT22;13689;48.590;7.752;2023-04-03T00:57:58;7.10;65.60
25871;DHT22;13689;48.590;7.752;2023-04-03T01:00:26;7.10;65.00
25871;DHT22;13689;48.590;7.752;2023-04-03T01:02:52;7.00;65.00
25871;DHT22;13689;48.590;7.752;2023-04-03T01:05:19;6.90;65.50
25871;DHT22;13689;48.590;7.752;2023-04-03T01:07:46;6.90;65.20
25871;DHT22;13689;48.590;7.752;2023-04-03T01:10:14;6.90;65.50
25871;DHT22;13689;48.590;7.752;2023-04-03T01:12:43;6.90;65.40
25871;DHT22;13689;48.590;7.752;2023-04-03T01:15:21;6.80;65.50
25871;DHT22;13689;48.590;7.752;2023-04-03T01:17:52;6.70;65.80
25871;DHT22;13689;48.590;7.752;2023-04-03T01:25:43;6.70;65.90
25871;DHT22;13689;48.590;7.752;2023-04-03T01:28:12;6.90;66.20
25871;DHT22;13689;48.590;7.752;2023-04-03T01:33:37;6.80;65.70
25871;DHT22;13689;48.590;7.752;2023-04-03T01:36:03;6.70;65.70
25871;DHT22;13689;48.590;7.752;2023-04-03T01:38:29;6.70;65.80
25871;DHT22;13689;48.590;7.752;2023-04-03T01:40:55;6.70;66.00
25871;DHT22;13689;48.590;7.752;2023-04-03T01:43:20;6.70;65.90
25871;DHT22;13689;48.590;7.752;2023-04-03T01:45:46;6.70;66.10
25871;DHT22;13689;48.590;7.752;2023-04-03T01:48:12;6.70;66.00
25871;DHT22;13689;48.590;7.752;2023-04-03T01:50:39;6.80;65.90
25871;DHT22;13689;48.590;7.752;2023-04-03T01:53:04;6.70;65.70
25871;DHT22;13689;48.590;7.752;2023-04-03T01:55:30;6.70;65.90
25871;DHT22;13689;48.590;7.752;2023-04-03T01:57:55;6.70;65.70
25871;DHT22;13689;48.590;7.752;2023-04-03T02:00:21;6.70;66.00
25871;DHT22;13689;48.590;7.752;2023-04-03T02:02:47;6.70;66.00
25871;DHT22;13689;48.590;7.752;2023-04-03T02:05:12;6.70;66.00
25871;DHT22;13689;48.590;7.752;2023-04-03T02:07:38;6.70;65.90
25871;DHT22;13689;48.590;7.752;2023-04-03T02:10:04;6.70;66.00
25871;DHT22;13689;48.590;7.752;2023-04-03T02:12:30;6.60;66.10
25871;DHT22;13689;48.590;7.752;2023-04-03T02:14:55;6.60;66.30
25871;DHT22;13689;48.590;7.752;2023-04-03T02:17:21;6.70;66.30
25871;DHT22;13689;48.590;7.752;2023-04-03T02:19:46;6.80;66.30
25871;DHT22;13689;48.590;7.752;2023-04-03T02:22:12;6.70;65.90
25871;DHT22;13689;48.590;7.752;2023-04-03T02:24:37;6.70;66.10
25871;DHT22;13689;48.590;7.752;2023-04-03T02:27:05;6.80;66.20
25871;DHT22;13689;48.590;7.752;2023-04-03T02:29:31;6.80;65.80
25871;DHT22;13689;48.590;7.752;2023-04-03T02:31:56;6.70;66.20
25871;DHT22;13689;48.590;7.752;2023-04-03T02:34:22;6.80;66.30
25871;DHT22;13689;48.590;7.752;2023-04-03T02:36:48;6.70;66.10
25871;DHT22;13689;48.590;7.752;2023-04-03T02:39:13;6.70;66.30
25871;DHT22;13689;48.590;7.752;2023-04-03T02:41:39;6.70;66.30
25871;DHT22;13689;48.590;7.752;2023-04-03T02:44:11;6.70;66.10
25871;DHT22;13689;48.590;7.752;2023-04-03T02:46:37;6.70;66.30
25871;DHT22;13689;48.590;7.752;2023-04-03T02:49:03;6.70;66.20
25871;DHT22;13689;48.590;7.752;2023-04-03T02:51:29;6.60;66.30
25871;DHT22;13689;48.590;7.752;2023-04-03T02:53:54;6.60;66.50
25871;DHT22;13689;48.590;7.752;2023-04-03T02:56:20;6.50;66.70
25871;DHT22;13689;48.590;7.752;2023-04-03T02:58:46;6.60;67.00
25871;DHT22;13689;48.590;7.752;2023-04-03T03:01:13;6.60;67.00
25871;DHT22;13689;48.590;7.752;2023-04-03T03:03:39;6.60;66.80
25871;DHT22;13689;48.590;7.752;2023-04-03T03:06:11;6.60;66.80
25871;DHT22;13689;48.590;7.752;2023-04-03T03:08:37;6.60;66.20
25871;DHT22;13689;48.590;7.752;2023-04-03T03:11:04;6.60;66.80
25871;DHT22;13689;48.590;7.752;2023-04-03T03:13:31;6.60;66.70
25871;DHT22;13689;48.590;7.752;2023-04-03T03:15:57;6.60;66.80
25871;DHT22;13689;48.590;7.752;2023-04-03T03:18:23;6.50;66.90
25871;DHT22;13689;48.590;7.752;2023-04-03T03:20:56;6.50;67.50
25871;DHT22;13689;48.590;7.752;2023-04-03T03:23:24;6.40;67.40
25871;DHT22;13689;48.590;7.752;2023-04-03T03:25:58;6.40;67.60
25871;DHT22;13689;48.590;7.752;2023-04-03T03:28:24;6.40;67.70
25871;DHT22;13689;48.590;7.752;2023-04-03T03:30:50;6.40;67.50
25871;DHT22;13689;48.590;7.752;2023-04-03T03:33:16;6.30;68.00
25871;DHT22;13689;48.590;7.752;2023-04-03T03:35:42;6.30;68.10
25871;DHT22;13689;48.590;7.752;2023-04-03T03:38:08;6.30;68.50
25871;DHT22;13689;48.590;7.752;2023-04-03T03:40:34;6.30;68.00
25871;DHT22;13689;48.590;7.752;2023-04-03T03:43:00;6.20;68.30
25871;DHT22;13689;48.590;7.752;2023-04-03T03:45:25;6.20;68.30
25871;DHT22;13689;48.590;7.752;2023-04-03T03:47:51;6.20;68.40
25871;DHT22;13689;48.590;7.752;2023-04-03T03:50:17;6.10;68.50
25871;DHT22;13689;48.590;7.752;2023-04-03T03:52:42;6.00;68.70
25871;DHT22;13689;48.590;7.752;2023-04-03T03:55:08;5.90;69.00
25871;DHT22;13689;48.590;7.752;2023-04-03T03:57:33;5.90;69.20
25871;DHT22;13689;48.590;7.752;2023-04-03T03:59:59;6.00;69.30
25871;DHT22;13689;48.590;7.752;2023-04-03T04:02:25;6.00;69.30
25871;DHT22;13689;48.590;7.752;2023-04-03T04:04:50;6.00;69.00
25871;DHT22;13689;48.590;7.752;2023-04-03T04:07:16;6.00;69.10
25871;DHT22;13689;48.590;7.752;2023-04-03T04:09:41;5.90;69.50
25871;DHT22;13689;48.590;7.752;2023-04-03T04:12:07;5.90;69.30
25871;DHT22;13689;48.590;7.752;2023-04-03T04:14:33;5.80;69.40
25871;DHT22;13689;48.590;7.752;2023-04-03T04:16:58;5.80;70.00
25871;DHT22;13689;48.590;7.752;2023-04-03T04:19:24;5.80;69.70
25871;DHT22;13689;48.590;7.752;2023-04-03T04:21:49;5.90;69.60
25871;DHT22;13689;48.590;7.752;2023-04-03T04:24:15;5.80;69.40
25871;DHT22;13689;48.590;7.752;2023-04-03T04:26:41;5.80;69.70
25871;DHT22;13689;48.590;7.752;2023-04-03T04:29:08;5.90;69.60
25871;DHT22;13689;48.590;7.752;2023-04-03T04:31:34;5.90;69.40
25871;DHT22;13689;48.590;7.752;2023-04-03T04:33:59;5.80;69.40
25871;DHT22;13689;48.590;7.752;2023-04-03T04:36:25;5.70;69.50
25871;DHT22;13689;48.590;7.752;2023-04-03T04:38:51;5.70;70.00
25871;DHT22;13689;48.590;7.752;2023-04-03T04:41:21;5.80;70.00
25871;DHT22;13689;48.590;7.752;2023-04-03T04:43:51;5.80;69.80
25871;DHT22;13689;48.590;7.752;2023-04-03T04:46:18;5.70;69.90
25871;DHT22;13689;48.590;7.752;2023-04-03T04:48:44;5.60;70.20
25871;DHT22;13689;48.590;7.752;2023-04-03T04:51:10;5.60;70.10
25871;DHT22;13689;48.590;7.752;2023-04-03T04:53:36;5.60;70.40
25871;DHT22;13689;48.590;7.752;2023-04-03T04:56:02;5.70;70.50
25871;DHT22;13689;48.590;7.752;2023-04-03T04:58:28;5.70;70.00
25871;DHT22;13689;48.590;7.752;2023-04-03T05:01:05;5.70;70.30
25871;DHT22;13689;48.590;7.752;2023-04-03T05:03:32;5.70;70.30
25871;DHT22;13689;48.590;7.752;2023-04-03T05:05:58;5.70;70.40
25871;DHT22;13689;48.590;7.752;2023-04-03T05:08:24;5.70;70.40
25871;DHT22;13689;48.590;7.752;2023-04-03T05:10:50;5.70;70.70
25871;DHT22;13689;48.590;7.752;2023-04-03T05:13:16;5.60;70.60
25871;DHT22;13689;48.590;7.752;2023-04-03T05:15:42;5.60;70.80
25871;DHT22;13689;48.590;7.752;2023-04-03T05:18:07;5.60;70.90
25871;DHT22;13689;48.590;7.752;2023-04-03T05:20:33;5.60;71.10
25871;DHT22;13689;48.590;7.752;2023-04-03T05:22:59;5.60;71.10
25871;DHT22;13689;48.590;7.752;2023-04-03T05:25:25;5.60;71.00
25871;DHT22;13689;48.590;7.752;2023-04-03T05:27:51;5.60;71.10
25871;DHT22;13689;48.590;7.752;2023-04-03T05:30:17;5.60;71.10
25871;DHT22;13689;48.590;7.752;2023-04-03T05:32:43;5.60;71.10
25871;DHT22;13689;48.590;7.752;2023-04-03T05:35:09;5.60;71.30
25871;DHT22;13689;48.590;7.752;2023-04-03T05:37:35;5.70;71.20
25871;DHT22;13689;48.590;7.752;2023-04-03T05:40:03;5.70;70.80
25871;DHT22;13689;48.590;7.752;2023-04-03T05:42:29;5.70;70.80
25871;DHT22;13689;48.590;7.752;2023-04-03T05:44:55;5.70;70.90
25871;DHT22;13689;48.590;7.752;2023-04-03T05:47:20;5.70;70.90
25871;DHT22;13689;48.590;7.752;2023-04-03T05:49:46;5.70;71.10
25871;DHT22;13689;48.590;7.752;2023-04-03T05:54:48;5.80;70.90
25871;DHT22;13689;48.590;7.752;2023-04-03T05:57:17;5.80;70.70
25871;DHT22;13689;48.590;7.752;2023-04-03T05:59:45;5.80;70.50
25871;DHT22;13689;48.590;7.752;2023-04-03T06:02:20;5.80;70.50
25871;DHT22;13689;48.590;7.752;2023-04-03T06:04:46;5.90;70.60
25871;DHT22;13689;48.590;7.752;2023-04-03T06:07:15;6.00;70.40
25871;DHT22;13689;48.590;7.752;2023-04-03T06:09:41;6.00;70.00
25871;DHT22;13689;48.590;7.752;2023-04-03T06:12:07;6.10;69.90
25871;DHT22;13689;48.590;7.752;2023-04-03T06:14:33;6.10;69.70
25871;DHT22;13689;48.590;7.752;2023-04-03T06:16:59;6.10;69.60
25871;DHT22;13689;48.590;7.752;2023-04-03T06:19:25;6.00;69.50
25871;DHT22;13689;48.590;7.752;2023-04-03T06:21:51;6.20;69.80
25871;DHT22;13689;48.590;7.752;2023-04-03T06:24:18;6.30;69.40
25871;DHT22;13689;48.590;7.752;2023-04-03T06:26:44;6.40;69.00
25871;DHT22;13689;48.590;7.752;2023-04-03T06:29:09;6.40;68.60
25871;DHT22;13689;48.590;7.752;2023-04-03T06:31:36;6.40;68.60
25871;DHT22;13689;48.590;7.752;2023-04-03T06:34:04;6.50;68.40
25871;DHT22;13689;48.590;7.752;2023-04-03T06:36:31;6.50;68.70
25871;DHT22;13689;48.590;7.752;2023-04-03T06:38:57;6.60;68.10
25871;DHT22;13689;48.590;7.752;2023-04-03T06:41:22;6.60;67.90
25871;DHT22;13689;48.590;7.752;2023-04-03T06:43:48;6.60;67.80
25871;DHT22;13689;48.590;7.752;2023-04-03T06:46:19;6.60;67.80
25871;DHT22;13689;48.590;7.752;2023-04-03T06:48:46;6.80;67.80
25871;DHT22;13689;48.590;7.752;2023-04-03T06:51:38;6.80;67.10
25871;DHT22;13689;48.590;7.752;2023-04-03T06:54:05;6.80;66.80
25871;DHT22;13689;48.590;7.752;2023-04-03T06:56:31;6.90;66.80
25871;DHT22;13689;48.590;7.752;2023-04-03T06:58:57;7.20;67.10
25871;DHT22;13689;48.590;7.752;2023-04-03T07:01:25;7.30;66.00
25871;DHT22;13689;48.590;7.752;2023-04-03T07:03:52;7.50;65.50
25871;DHT22;13689;48.590;7.752;2023-04-03T07:06:18;7.90;65.00
25871;DHT22;13689;48.590;7.752;2023-04-03T07:08:44;8.40;63.80
25871;DHT22;13689;48.590;7.752;2023-04-03T07:11:11;8.50;62.80
25871;DHT22;13689;48.590;7.752;2023-04-03T07:13:38;8.40;62.10
25871;DHT22;13689;48.590;7.752;2023-04-03T07:16:05;8.20;61.50
25871;DHT22;13689;48.590;7.752;2023-04-03T07:18:32;8.20;61.70
25871;DHT22;13689;48.590;7.752;2023-04-03T07:20:57;8.20;61.30
25871;DHT22;13689;48.590;7.752;2023-04-03T07:23:24;8.30;61.00
25871;DHT22;13689;48.590;7.752;2023-04-03T07:25:51;8.60;60.50
25871;DHT22;13689;48.590;7.752;2023-04-03T07:28:18;8.90;59.90
25871;DHT22;13689;48.590;7.752;2023-04-03T07:30:52;9.80;59.20
25871;DHT22;13689;48.590;7.752;2023-04-03T07:33:20;10.60;57.00
25871;DHT22;13689;48.590;7.752;2023-04-03T07:35:46;11.40;54.80
25871;DHT22;13689;48.590;7.752;2023-04-03T07:38:12;11.90;54.00
25871;DHT22;13689;48.590;7.752;2023-04-03T07:40:38;12.40;52.10
25871;DHT22;13689;48.590;7.752;2023-04-03T07:43:04;13.00;50.90
25871;DHT22;13689;48.590;7.752;2023-04-03T07:45:31;13.50;49.30
25871;DHT22;13689;48.590;7.752;2023-04-03T07:47:57;14.10;48.00
25871;DHT22;13689;48.590;7.752;2023-04-03T07:50:22;14.60;47.20
25871;DHT22;13689;48.590;7.752;2023-04-03T07:52:48;15.20;46.40
25871;DHT22;13689;48.590;7.752;2023-04-03T07:55:16;15.70;44.50
25871;DHT22;13689;48.590;7.752;2023-04-03T07:57:42;16.20;43.30
25871;DHT22;13689;48.590;7.752;2023-04-03T08:00:08;16.60;42.40
25871;DHT22;13689;48.590;7.752;2023-04-03T08:02:35;16.80;41.30
25871;DHT22;13689;48.590;7.752;2023-04-03T08:05:01;16.90;40.10
25871;DHT22;13689;48.590;7.752;2023-04-03T08:07:26;16.20;39.20
25871;DHT22;13689;48.590;7.752;2023-04-03T08:09:52;16.10;40.00
25871;DHT22;13689;48.590;7.752;2023-04-03T08:12:18;16.30;40.10
25871;DHT22;13689;48.590;7.752;2023-04-03T08:14:43;16.20;38.60
25871;DHT22;13689;48.590;7.752;2023-04-03T08:17:09;16.20;38.50
25871;DHT22;13689;48.590;7.752;2023-04-03T08:19:38;16.40;38.60
25871;DHT22;13689;48.590;7.752;2023-04-03T08:22:04;16.50;37.50
25871;DHT22;13689;48.590;7.752;2023-04-03T08:24:31;16.40;37.40
25871;DHT22;13689;48.590;7.752;2023-04-03T08:26:56;16.90;37.70
25871;DHT22;13689;48.590;7.752;2023-04-03T08:29:22;16.90;37.20
25871;DHT22;13689;48.590;7.752;2023-04-03T08:31:48;17.00;37.80
25871;DHT22;13689;48.590;7.752;2023-04-03T08:34:15;16.70;37.20
25871;DHT22;13689;48.590;7.752;2023-04-03T08:36:42;16.00;37.70
25871;DHT22;13689;48.590;7.752;2023-04-03T08:39:07;15.90;38.90
25871;DHT22;13689;48.590;7.752;2023-04-03T08:41:39;16.20;39.10
25871;DHT22;13689;48.590;7.752;2023-04-03T08:47:00;17.20;37.50
25871;DHT22;13689;48.590;7.752;2023-04-03T08:49:42;17.30;37.20
25871;DHT22;13689;48.590;7.752;2023-04-03T08:52:15;17.10;37.20
25871;DHT22;13689;48.590;7.752;2023-04-03T08:54:49;15.90;38.00
25871;DHT22;13689;48.590;7.752;2023-04-03T08:57:16;14.20;40.30
25871;DHT22;13689;48.590;7.752;2023-04-03T08:59:43;12.70;43.00
25871;DHT22;13689;48.590;7.752;2023-04-03T09:02:41;12.00;44.70
25871;DHT22;13689;48.590;7.752;2023-04-03T09:05:18;12.40;45.70
25871;DHT22;13689;48.590;7.752;2023-04-03T09:07:54;13.50;45.10
25871;DHT22;13689;48.590;7.752;2023-04-03T09:10:28;14.20;43.80
25871;DHT22;13689;48.590;7.752;2023-04-03T09:13:45;14.20;43.60
25871;DHT22;13689;48.590;7.752;2023-04-03T09:15:52;13.70;44.10
25871;DHT22;13689;48.590;7.752;2023-04-03T09:18:28;13.00;45.00
25871;DHT22;13689;48.590;7.752;2023-04-03T09:21:08;12.70;45.70
25871;DHT22;13689;48.590;7.752;2023-04-03T09:23:45;12.70;46.10
25871;DHT22;13689;48.590;7.752;2023-04-03T09:26:34;12.60;46.00
25871;DHT22;13689;48.590;7.752;2023-04-03T09:29:05;12.10;46.70
25871;DHT22;13689;48.590;7.752;2023-04-03T09:31:42;11.90;47.40
25871;DHT22;13689;48.590;7.752;2023-04-03T09:34:28;11.70;48.00
25871;DHT22;13689;48.590;7.752;2023-04-03T09:36:57;11.70;48.00
25871;DHT22;13689;48.590;7.752;2023-04-03T09:39:28;11.40;47.60
25871;DHT22;13689;48.590;7.752;2023-04-03T09:42:22;11.30;47.80
25871;DHT22;13689;48.590;7.752;2023-04-03T09:45:04;11.30;47.90
25871;DHT22;13689;48.590;7.752;2023-04-03T09:47:34;11.20;48.20
25871;DHT22;13689;48.590;7.752;2023-04-03T09:52:42;11.00;48.70
25871;DHT22;13689;48.590;7.752;2023-04-03T09:57:45;11.20;48.20
25871;DHT22;13689;48.590;7.752;2023-04-03T10:00:21;11.80;48.80
25871;DHT22;13689;48.590;7.752;2023-04-03T10:02:54;12.90;47.00
25871;DHT22;13689;48.590;7.752;2023-04-03T10:05:41;12.80;46.10
25871;DHT22;13689;48.590;7.752;2023-04-03T10:10:42;12.20;46.50
25871;DHT22;13689;48.590;7.752;2023-04-03T10:13:15;11.80;47.10
25871;DHT22;13689;48.590;7.752;2023-04-03T10:18:44;11.50;47.70
25871;DHT22;13689;48.590;7.752;2023-04-03T10:21:16;11.40;47.70
25871;DHT22;13689;48.590;7.752;2023-04-03T10:23:53;11.20;48.00
25871;DHT22;13689;48.590;7.752;2023-04-03T10:26:34;11.30;48.40
25871;DHT22;13689;48.590;7.752;2023-04-03T10:31:59;11.30;47.00
25871;DHT22;13689;48.590;7.752;2023-04-03T10:34:35;11.20;47.00
25871;DHT22;13689;48.590;7.752;2023-04-03T10:39:40;11.00;46.60
25871;DHT22;13689;48.590;7.752;2023-04-03T10:42:35;11.10;46.70
25871;DHT22;13689;48.590;7.752;2023-04-03T10:45:21;11.20;46.50
25871;DHT22;13689;48.590;7.752;2023-04-03T10:48:28;11.40;46.40
25871;DHT22;13689;48.590;7.752;2023-04-03T10:54:25;11.50;45.60
25871;DHT22;13689;48.590;7.752;2023-04-03T10:57:01;11.30;45.40
25871;DHT22;13689;48.590;7.752;2023-04-03T11:02:27;11.30;45.40
25871;DHT22;13689;48.590;7.752;2023-04-03T11:05:07;11.40;45.30
25871;DHT22;13689;48.590;7.752;2023-04-03T11:07:43;11.40;44.80
25871;DHT22;13689;48.590;7.752;2023-04-03T11:10:19;11.30;44.90
25871;DHT22;13689;48.590;7.752;2023-04-03T11:12:58;11.30;44.90
25871;DHT22;13689;48.590;7.752;2023-04-03T11:15:29;11.30;45.30
25871;DHT22;13689;48.590;7.752;2023-04-03T11:18:06;11.30;45.50
25871;DHT22;13689;48.590;7.752;2023-04-03T11:20:35;11.30;45.50
25871;DHT22;13689;48.590;7.752;2023-04-03T11:23:04;11.10;45.40
25871;DHT22;13689;48.590;7.752;2023-04-03T11:25:35;11.10;45.60
25871;DHT22;13689;48.590;7.752;2023-04-03T11:28:05;11.00;45.70
25871;DHT22;13689;48.590;7.752;2023-04-03T11:36:18;11.10;45.60
25871;DHT22;13689;48.590;7.752;2023-04-03T11:38:46;11.20;45.60
25871;DHT22;13689;48.590;7.752;2023-04-03T11:41:15;11.10;45.60
25871;DHT22;13689;48.590;7.752;2023-04-03T11:44:03;11.10;45.60
25871;DHT22;13689;48.590;7.752;2023-04-03T11:46:51;11.10;45.60
25871;DHT22;13689;48.590;7.752;2023-04-03T11:49:59;11.10;45.60
25871;DHT22;13689;48.590;7.752;2023-04-03T12:16:45;11.60;43.60
25871;DHT22;13689;48.590;7.752;2023-04-03T12:29:34;11.70;43.20
25871;DHT22;13689;48.590;7.752;2023-04-03T12:46:02;11.30;44.20
25871;DHT22;13689;48.590;7.752;2023-04-03T12:48:30;11.20;43.50
25871;DHT22;13689;48.590;7.752;2023-04-03T12:50:57;11.10;43.70
25871;DHT22;13689;48.590;7.752;2023-04-03T12:53:26;11.10;44.00
25871;DHT22;13689;48.590;7.752;2023-04-03T12:55:57;11.20;43.90
25871;DHT22;13689;48.590;7.752;2023-04-03T12:58:25;11.30;43.60
25871;DHT22;13689;48.590;7.752;2023-04-03T13:01:09;11.30;43.10
25871;DHT22;13689;48.590;7.752;2023-04-03T13:03:39;11.40;43.10
25871;DHT22;13689;48.590;7.752;2023-04-03T13:06:05;11.40;43.00
25871;DHT22;13689;48.590;7.752;2023-04-03T13:08:32;11.50;42.80
25871;DHT22;13689;48.590;7.752;2023-04-03T13:11:10;11.50;42.60
25871;DHT22;13689;48.590;7.752;2023-04-03T13:13:37;11.40;42.80
25871;DHT22;13689;48.590;7.752;2023-04-03T13:16:11;11.50;43.00
25871;DHT22;13689;48.590;7.752;2023-04-03T13:18:39;11.50;43.10
25871;DHT22;13689;48.590;7.752;2023-04-03T13:21:06;11.40;43.20
25871;DHT22;13689;48.590;7.752;2023-04-03T13:23:36;11.40;43.20
25871;DHT22;13689;48.590;7.752;2023-04-03T13:26:02;11.30;43.50
25871;DHT22;13689;48.590;7.752;2023-04-03T13:28:30;11.40;43.60
25871;DHT22;13689;48.590;7.752;2023-04-03T13:31:08;11.40;43.80
25871;DHT22;13689;48.590;7.752;2023-04-03T13:36:44;11.30;43.80
25871;DHT22;13689;48.590;7.752;2023-04-03T13:41:41;11.40;44.00
25871;DHT22;13689;48.590;7.752;2023-04-03T13:46:55;11.60;43.70
25871;DHT22;13689;48.590;7.752;2023-04-03T13:49:46;11.50;43.10
25871;DHT22;13689;48.590;7.752;2023-04-03T13:52:52;11.60;43.90
25871;DHT22;13689;48.590;7.752;2023-04-03T13:55:24;11.60;43.20
25871;DHT22;13689;48.590;7.752;2023-04-03T13:57:56;11.40;43.00
25871;DHT22;13689;48.590;7.752;2023-04-03T14:00:49;11.40;43.30
25871;DHT22;13689;48.590;7.752;2023-04-03T14:03:30;11.30;43.40
25871;DHT22;13689;48.590;7.752;2023-04-03T14:05:57;11.40;43.40
25871;DHT22;13689;48.590;7.752;2023-04-03T14:08:22;11.30;43.20
25871;DHT22;13689;48.590;7.752;2023-04-03T14:10:49;11.30;43.10
25871;DHT22;13689;48.590;7.752;2023-04-03T14:13:18;11.20;43.00
25871;DHT22;13689;48.590;7.752;2023-04-03T14:15:46;11.20;43.00
25871;DHT22;13689;48.590;7.752;2023-04-03T14:18:15;11.10;43.20
25871;DHT22;13689;48.590;7.752;2023-04-03T14:20:41;11.10;43.50
25871;DHT22;13689;48.590;7.752;2023-04-03T14:23:07;11.20;43.60
25871;DHT22;13689;48.590;7.752;2023-04-03T14:25:33;11.10;43.50
25871;DHT22;13689;48.590;7.752;2023-04-03T14:27:59;11.10;43.60
25871;DHT22;13689;48.590;7.752;2023-04-03T14:30:28;11.00;43.60
25871;DHT22;13689;48.590;7.752;2023-04-03T14:32:55;10.80;43.90
25871;DHT22;13689;48.590;7.752;2023-04-03T14:35:22;10.80;45.10
25871;DHT22;13689;48.590;7.752;2023-04-03T14:37:48;10.70;44.90
25871;DHT22;13689;48.590;7.752;2023-04-03T14:40:19;10.70;45.20
25871;DHT22;13689;48.590;7.752;2023-04-03T14:42:45;10.70;45.20
25871;DHT22;13689;48.590;7.752;2023-04-03T14:45:13;10.70;45.20
25871;DHT22;13689;48.590;7.752;2023-04-03T14:47:57;10.70;45.00
25871;DHT22;13689;48.590;7.752;2023-04-03T14:50:26;10.80;45.00
25871;DHT22;13689;48.590;7.752;2023-04-03T14:52:54;10.70;45.30
25871;DHT22;13689;48.590;7.752;2023-04-03T14:55:21;10.60;45.40
25871;DHT22;13689;48.590;7.752;2023-04-03T14:57:47;10.60;45.60
25871;DHT22;13689;48.590;7.752;2023-04-03T15:00:16;10.40;45.60
25871;DHT22;13689;48.590;7.752;2023-04-03T15:02:42;10.30;46.00
25871;DHT22;13689;48.590;7.752;2023-04-03T15:05:10;10.30;46.10
25871;DHT22;13689;48.590;7.752;2023-04-03T15:07:41;10.20;46.10
25871;DHT22;13689;48.590;7.752;2023-04-03T15:10:25;10.20;46.00
25871;DHT22;13689;48.590;7.752;2023-04-03T15:12:51;10.10;45.70
25871;DHT22;13689;48.590;7.752;2023-04-03T15:15:18;10.10;45.80
25871;DHT22;13689;48.590;7.752;2023-04-03T15:17:46;10.10;45.80
25871;DHT22;13689;48.590;7.752;2023-04-03T15:20:18;10.00;46.00
25871;DHT22;13689;48.590;7.752;2023-04-03T15:22:45;10.00;46.20
25871;DHT22;13689;48.590;7.752;2023-04-03T15:25:10;10.10;46.00
25871;DHT22;13689;48.590;7.752;2023-04-03T15:27:37;10.10;45.90
25871;DHT22;13689;48.590;7.752;2023-04-03T15:30:05;10.10;46.00
25871;DHT22;13689;48.590;7.752;2023-04-03T15:32:31;10.10;46.10
25871;DHT22;13689;48.590;7.752;2023-04-03T15:34:56;10.00;46.20
25871;DHT22;13689;48.590;7.752;2023-04-03T15:37:22;10.00;46.30
25871;DHT22;13689;48.590;7.752;2023-04-03T15:39:48;9.90;46.40
25871;DHT22;13689;48.590;7.752;2023-04-03T15:42:14;9.80;46.80
25871;DHT22;13689;48.590;7.752;2023-04-03T15:44:39;9.90;46.90
25871;DHT22;13689;48.590;7.752;2023-04-03T15:47:05;9.90;46.80
25871;DHT22;13689;48.590;7.752;2023-04-03T15:49:33;10.00;46.60
25871;DHT22;13689;48.590;7.752;2023-04-03T15:51:59;10.10;46.40
25871;DHT22;13689;48.590;7.752;2023-04-03T15:54:25;10.10;46.20
25871;DHT22;13689;48.590;7.752;2023-04-03T15:56:51;10.10;45.90
25871;DHT22;13689;48.590;7.752;2023-04-03T15:59:17;10.00;45.70
25871;DHT22;13689;48.590;7.752;2023-04-03T16:01:43;10.00;45.70
25871;DHT22;13689;48.590;7.752;2023-04-03T16:04:09;9.90;45.80
25871;DHT22;13689;48.590;7.752;2023-04-03T16:06:36;9.80;45.80
25871;DHT22;13689;48.590;7.752;2023-04-03T16:09:03;9.90;45.30
25871;DHT22;13689;48.590;7.752;2023-04-03T16:11:29;9.90;45.10
25871;DHT22;13689;48.590;7.752;2023-04-03T16:13:55;10.00;45.00
25871;DHT22;13689;48.590;7.752;2023-04-03T16:16:22;10.00;45.10
25871;DHT22;13689;48.590;7.752;2023-04-03T16:18:48;10.00;45.70
25871;DHT22;13689;48.590;7.752;2023-04-03T16:21:15;10.10;45.00
25871;DHT22;13689;48.590;7.752;2023-04-03T16:23:42;10.00;44.80
25871;DHT22;13689;48.590;7.752;2023-04-03T16:26:08;10.00;45.00
25871;DHT22;13689;48.590;7.752;2023-04-03T16:28:36;10.00;45.10
25871;DHT22;13689;48.590;7.752;2023-04-03T16:31:02;9.90;45.20
25871;DHT22;13689;48.590;7.752;2023-04-03T16:33:29;10.00;45.40
25871;DHT22;13689;48.590;7.752;2023-04-03T16:35:55;9.90;45.50
25871;DHT22;13689;48.590;7.752;2023-04-03T16:38:20;9.90;45.70
25871;DHT22;13689;48.590;7.752;2023-04-03T16:40:48;9.80;45.90
25871;DHT22;13689;48.590;7.752;2023-04-03T16:43:15;9.70;46.10
25871;DHT22;13689;48.590;7.752;2023-04-03T16:45:41;9.70;46.30
25871;DHT22;13689;48.590;7.752;2023-04-03T16:48:07;9.60;46.40
25871;DHT22;13689;48.590;7.752;2023-04-03T16:50:32;9.50;46.40
25871;DHT22;13689;48.590;7.752;2023-04-03T16:52:58;9.50;46.00
25871;DHT22;13689;48.590;7.752;2023-04-03T16:55:23;9.40;46.10
25871;DHT22;13689;48.590;7.752;2023-04-03T16:57:49;9.40;45.90
25871;DHT22;13689;48.590;7.752;2023-04-03T17:00:16;9.40;45.90
25871;DHT22;13689;48.590;7.752;2023-04-03T17:02:41;9.40;45.90
25871;DHT22;13689;48.590;7.752;2023-04-03T17:05:09;9.40;45.90
25871;DHT22;13689;48.590;7.752;2023-04-03T17:07:34;9.40;46.00
25871;DHT22;13689;48.590;7.752;2023-04-03T17:10:00;9.30;46.10
25871;DHT22;13689;48.590;7.752;2023-04-03T17:12:26;9.30;46.60
25871;DHT22;13689;48.590;7.752;2023-04-03T17:14:52;9.30;46.90
25871;DHT22;13689;48.590;7.752;2023-04-03T17:17:22;9.30;47.20
25871;DHT22;13689;48.590;7.752;2023-04-03T17:19:48;9.30;47.40
25871;DHT22;13689;48.590;7.752;2023-04-03T17:22:14;9.20;47.40
25871;DHT22;13689;48.590;7.752;2023-04-03T17:24:41;9.20;47.40
25871;DHT22;13689;48.590;7.752;2023-04-03T17:27:07;9.20;47.40
25871;DHT22;13689;48.590;7.752;2023-04-03T17:29:33;9.20;47.10